sensor_id;sensor_type;location;lat;lon;timestamp;P1;durP1;ratioP1;P2;durP2;ratioP2
66761;SDS011;53672;48.176;16.338;2024-03-08T00:03:03;54.73;;;20.63;;
66761;SDS011;53672;48.176;16.338;2024-03-08T00:08:06;52.78;;;19.35;;
66761;SDS011;53672;48.176;16.338;2024-03-08T00:13:09;50.53;;;18.00;;
66761;SDS011;53672;48.176;16.338;2024-03-08T00:18:11;55.28;;;18.25;;
66761;SDS011;53672;48.176;16.338;2024-03-08T00:23:14;56.45;;;19.33;;
66761;SDS011;53672;48.176;16.338;2024-03-08T00:28:16;55.70;;;20.57;;
66761;SDS011;53672;48.176;16.338;2024-03-08T00:33:19;57.67;;;20.45;;
66761;SDS011;53672;48.176;16.338;2024-03-08T00:38:22;54.37;;;20.10;;
66761;SDS011;53672;48.176;16.338;2024-03-08T00:43:24;62.85;;;19.92;;
66761;SDS011;53672;48.176;16.338;2024-03-08T00:48:26;51.92;;;19.08;;
66761;SDS011;53672;48.176;16.338;2024-03-08T00:53:29;52.50;;;19.60;;
66761;SDS011;53672;48.176;16.338;2024-03-08T00:58:30;56.45;;;20.05;;
66761;SDS011;53672;48.176;16.338;2024-03-08T01:03:32;51.67;;;18.73;;
66761;SDS011;53672;48.176;16.338;2024-03-08T01:08:35;52.10;;;18.45;;
66761;SDS011;53672;48.176;16.338;2024-03-08T01:13:38;57.63;;;21.08;;
66761;SDS011;53672;48.176;16.338;2024-03-08T01:18:40;52.83;;;19.57;;
66761;SDS011;53672;48.176;16.338;2024-03-08T01:23:43;56.28;;;19.73;;
66761;SDS011;53672;48.176;16.338;2024-03-08T01:28:44;55.20;;;19.73;;
66761;SDS011;53672;48.176;16.338;2024-03-08T01:33:46;62.30;;;19.85;;
66761;SDS011;53672;48.176;16.338;2024-03-08T01:38:49;53.03;;;19.48;;
66761;SDS011;53672;48.176;16.338;2024-03-08T01:43:51;56.80;;;19.70;;
66761;SDS011;53672;48.176;16.338;2024-03-08T01:48:53;56.45;;;19.83;;
66761;SDS011;53672;48.176;16.338;2024-03-08T01:53:56;63.90;;;21.60;;
66761;SDS011;53672;48.176;16.338;2024-03-08T01:58:58;57.10;;;20.42;;
66761;SDS011;53672;48.176;16.338;2024-03-08T02:04:00;60.30;;;19.50;;
66761;SDS011;53672;48.176;16.338;2024-03-08T02:09:03;61.40;;;20.20;;
66761;SDS011;53672;48.176;16.338;2024-03-08T02:14:07;54.55;;;19.75;;
66761;SDS011;53672;48.176;16.338;2024-03-08T02:19:09;51.07;;;19.47;;
66761;SDS011;53672;48.176;16.338;2024-03-08T02:24:12;61.63;;;20.40;;
66761;SDS011;53672;48.176;16.338;2024-03-08T02:29:14;57.35;;;20.00;;
66761;SDS011;53672;48.176;16.338;2024-03-08T02:34:16;56.90;;;19.83;;
66761;SDS011;53672;48.176;16.338;2024-03-08T02:39:19;59.65;;;20.80;;
66761;SDS011;53672;48.176;16.338;2024-03-08T02:44:21;57.07;;;20.80;;
66761;SDS011;53672;48.176;16.338;2024-03-08T02:49:23;57.70;;;19.92;;
66761;SDS011;53672;48.176;16.338;2024-03-08T02:54:26;59.97;;;20.30;;
66761;SDS011;53672;48.176;16.338;2024-03-08T02:59:28;58.00;;;20.30;;
66761;SDS011;53672;48.176;16.338;2024-03-08T03:04:29;58.28;;;20.95;;
66761;SDS011;53672;48.176;16.338;2024-03-08T03:09:32;64.00;;;21.20;;
66761;SDS011;53672;48.176;16.338;2024-03-08T03:14:35;59.72;;;20.65;;
66761;SDS011;53672;48.176;16.338;2024-03-08T03:19:40;68.45;;;21.42;;
66761;SDS011;53672;48.176;16.338;2024-03-08T03:24:44;60.80;;;21.27;;
66761;SDS011;53672;48.176;16.338;2024-03-08T03:29:46;63.97;;;22.23;;
66761;SDS011;53672;48.176;16.338;2024-03-08T03:34:49;61.10;;;21.50;;
66761;SDS011;53672;48.176;16.338;2024-03-08T03:39:54;64.00;;;22.05;;
66761;SDS011;53672;48.176;16.338;2024-03-08T03:44:57;61.78;;;21.33;;
66761;SDS011;53672;48.176;16.338;2024-03-08T03:49:59;62.20;;;22.13;;
66761;SDS011;53672;48.176;16.338;2024-03-08T03:55:03;65.90;;;23.38;;
66761;SDS011;53672;48.176;16.338;2024-03-08T04:00:06;62.20;;;21.83;;
66761;SDS011;53672;48.176;16.338;2024-03-08T04:05:10;60.50;;;21.20;;
66761;SDS011;53672;48.176;16.338;2024-03-08T04:10:13;62.08;;;20.95;;
66761;SDS011;53672;48.176;16.338;2024-03-08T04:15:15;64.03;;;20.93;;
66761;SDS011;53672;48.176;16.338;2024-03-08T04:20:16;56.90;;;20.00;;
66761;SDS011;53672;48.176;16.338;2024-03-08T04:25:19;63.73;;;20.57;;
66761;SDS011;53672;48.176;16.338;2024-03-08T04:30:21;63.90;;;21.80;;
66761;SDS011;53672;48.176;16.338;2024-03-08T04:35:23;65.80;;;21.60;;
66761;SDS011;53672;48.176;16.338;2024-03-08T04:40:27;70.03;;;20.67;;
66761;SDS011;53672;48.176;16.338;2024-03-08T04:45:28;58.95;;;21.50;;
66761;SDS011;53672;48.176;16.338;2024-03-08T04:50:30;69.33;;;21.83;;
66761;SDS011;53672;48.176;16.338;2024-03-08T04:55:33;67.80;;;22.00;;
66761;SDS011;53672;48.176;16.338;2024-03-08T05:00:35;65.47;;;23.13;;
66761;SDS011;53672;48.176;16.338;2024-03-08T05:05:36;66.57;;;22.67;;
66761;SDS011;53672;48.176;16.338;2024-03-08T05:10:39;62.65;;;21.08;;
66761;SDS011;53672;48.176;16.338;2024-03-08T05:15:41;60.80;;;21.07;;
66761;SDS011;53672;48.176;16.338;2024-03-08T05:20:43;58.05;;;20.88;;
66761;SDS011;53672;48.176;16.338;2024-03-08T05:25:46;59.53;;;20.67;;
66761;SDS011;53672;48.176;16.338;2024-03-08T05:30:47;61.50;;;20.63;;
66761;SDS011;53672;48.176;16.338;2024-03-08T05:35:49;61.10;;;20.88;;
66761;SDS011;53672;48.176;16.338;2024-03-08T05:40:53;63.40;;;21.50;;
66761;SDS011;53672;48.176;16.338;2024-03-08T05:45:55;57.15;;;21.10;;
66761;SDS011;53672;48.176;16.338;2024-03-08T05:50:56;62.17;;;22.35;;
66761;SDS011;53672;48.176;16.338;2024-03-08T05:55:59;65.23;;;22.37;;
66761;SDS011;53672;48.176;16.338;2024-03-08T06:01:02;66.20;;;22.20;;
66761;SDS011;53672;48.176;16.338;2024-03-08T06:06:07;66.43;;;22.50;;
66761;SDS011;53672;48.176;16.338;2024-03-08T06:11:10;67.93;;;22.65;;
66761;SDS011;53672;48.176;16.338;2024-03-08T06:16:12;69.35;;;22.85;;
66761;SDS011;53672;48.176;16.338;2024-03-08T06:21:13;66.40;;;22.90;;
66761;SDS011;53672;48.176;16.338;2024-03-08T06:26:17;74.88;;;23.30;;
66761;SDS011;53672;48.176;16.338;2024-03-08T06:31:19;65.83;;;20.87;;
66761;SDS011;53672;48.176;16.338;2024-03-08T06:36:21;64.55;;;22.48;;
66761;SDS011;53672;48.176;16.338;2024-03-08T06:41:24;64.05;;;22.35;;
66761;SDS011;53672;48.176;16.338;2024-03-08T06:46:25;56.37;;;19.90;;
66761;SDS011;53672;48.176;16.338;2024-03-08T06:51:27;62.58;;;20.75;;
66761;SDS011;53672;48.176;16.338;2024-03-08T06:56:30;61.20;;;21.33;;
66761;SDS011;53672;48.176;16.338;2024-03-08T07:01:31;60.65;;;21.92;;
66761;SDS011;53672;48.176;16.338;2024-03-08T07:06:36;58.22;;;19.52;;
66761;SDS011;53672;48.176;16.338;2024-03-08T07:11:39;58.63;;;21.10;;
66761;SDS011;53672;48.176;16.338;2024-03-08T07:16:42;59.40;;;20.20;;
66761;SDS011;53672;48.176;16.338;2024-03-08T07:21:44;57.77;;;19.73;;
66761;SDS011;53672;48.176;16.338;2024-03-08T07:26:48;57.28;;;20.75;;
66761;SDS011;53672;48.176;16.338;2024-03-08T07:31:52;64.07;;;21.63;;
66761;SDS011;53672;48.176;16.338;2024-03-08T07:37:12;63.80;;;21.60;;
66761;SDS011;53672;48.176;16.338;2024-03-08T07:42:15;65.95;;;22.75;;
66761;SDS011;53672;48.176;16.338;2024-03-08T07:47:17;60.90;;;22.47;;
66761;SDS011;53672;48.176;16.338;2024-03-08T07:52:18;64.30;;;21.67;;
66761;SDS011;53672;48.176;16.338;2024-03-08T07:57:24;64.20;;;22.88;;
66761;SDS011;53672;48.176;16.338;2024-03-08T08:02:26;76.10;;;23.43;;
66761;SDS011;53672;48.176;16.338;2024-03-08T08:07:28;68.65;;;23.63;;
66761;SDS011;53672;48.176;16.338;2024-03-08T08:12:31;66.97;;;22.47;;
66761;SDS011;53672;48.176;16.338;2024-03-08T08:17:34;71.50;;;23.30;;
66761;SDS011;53672;48.176;16.338;2024-03-08T08:22:36;74.82;;;23.75;;
66761;SDS011;53672;48.176;16.338;2024-03-08T08:27:40;70.30;;;23.23;;
66761;SDS011;53672;48.176;16.338;2024-03-08T08:32:42;69.18;;;24.60;;
66761;SDS011;53672;48.176;16.338;2024-03-08T08:37:44;73.37;;;23.37;;
66761;SDS011;53672;48.176;16.338;2024-03-08T08:42:47;75.68;;;23.83;;
66761;SDS011;53672;48.176;16.338;2024-03-08T08:47:48;72.40;;;23.88;;
66761;SDS011;53672;48.176;16.338;2024-03-08T08:52:50;79.30;;;24.57;;
66761;SDS011;53672;48.176;16.338;2024-03-08T08:57:54;82.43;;;23.63;;
66761;SDS011;53672;48.176;16.338;2024-03-08T09:02:56;73.10;;;24.47;;
66761;SDS011;53672;48.176;16.338;2024-03-08T09:07:58;80.05;;;25.27;;
66761;SDS011;53672;48.176;16.338;2024-03-08T09:13:01;79.60;;;24.08;;
66761;SDS011;53672;48.176;16.338;2024-03-08T09:18:04;78.60;;;23.97;;
66761;SDS011;53672;48.176;16.338;2024-03-08T09:23:06;76.82;;;24.73;;
66761;SDS011;53672;48.176;16.338;2024-03-08T09:28:10;84.73;;;25.13;;
66761;SDS011;53672;48.176;16.338;2024-03-08T09:33:12;82.10;;;23.60;;
66761;SDS011;53672;48.176;16.338;2024-03-08T09:38:19;77.45;;;22.33;;
66761;SDS011;53672;48.176;16.338;2024-03-08T09:43:22;73.97;;;22.07;;
66761;SDS011;53672;48.176;16.338;2024-03-08T09:48:24;65.95;;;20.17;;
66761;SDS011;53672;48.176;16.338;2024-03-08T09:53:27;73.80;;;20.67;;
66761;SDS011;53672;48.176;16.338;2024-03-08T09:58:31;69.75;;;20.05;;
66761;SDS011;53672;48.176;16.338;2024-03-08T10:03:54;65.13;;;18.63;;
66761;SDS011;53672;48.176;16.338;2024-03-08T10:08:56;71.80;;;20.23;;
66761;SDS011;53672;48.176;16.338;2024-03-08T10:13:59;67.63;;;20.17;;
66761;SDS011;53672;48.176;16.338;2024-03-08T10:19:01;62.73;;;18.93;;
66761;SDS011;53672;48.176;16.338;2024-03-08T10:24:05;59.53;;;18.27;;
66761;SDS011;53672;48.176;16.338;2024-03-08T10:29:14;61.67;;;18.30;;
66761;SDS011;53672;48.176;16.338;2024-03-08T10:34:17;50.13;;;16.43;;
66761;SDS011;53672;48.176;16.338;2024-03-08T10:39:21;50.35;;;16.42;;
66761;SDS011;53672;48.176;16.338;2024-03-08T10:44:30;51.27;;;14.97;;
66761;SDS011;53672;48.176;16.338;2024-03-08T10:49:44;35.60;;;12.77;;
66761;SDS011;53672;48.176;16.338;2024-03-08T10:54:52;35.50;;;12.82;;
66761;SDS011;53672;48.176;16.338;2024-03-08T10:59:58;33.77;;;11.93;;
66761;SDS011;53672;48.176;16.338;2024-03-08T11:05:00;33.22;;;11.65;;
66761;SDS011;53672;48.176;16.338;2024-03-08T11:10:07;31.57;;;11.97;;
66761;SDS011;53672;48.176;16.338;2024-03-08T11:15:21;28.90;;;10.38;;
66761;SDS011;53672;48.176;16.338;2024-03-08T11:20:23;33.30;;;10.85;;
66761;SDS011;53672;48.176;16.338;2024-03-08T11:25:33;26.53;;;9.77;;
66761;SDS011;53672;48.176;16.338;2024-03-08T11:30:40;25.73;;;9.57;;
66761;SDS011;53672;48.176;16.338;2024-03-08T11:35:42;21.57;;;9.50;;
66761;SDS011;53672;48.176;16.338;2024-03-08T11:40:46;18.73;;;7.43;;
66761;SDS011;53672;48.176;16.338;2024-03-08T11:45:51;19.70;;;7.70;;
66761;SDS011;53672;48.176;16.338;2024-03-08T11:51:08;20.50;;;8.40;;
66761;SDS011;53672;48.176;16.338;2024-03-08T11:56:12;20.52;;;8.85;;
66761;SDS011;53672;48.176;16.338;2024-03-08T12:01:17;24.07;;;9.50;;
66761;SDS011;53672;48.176;16.338;2024-03-08T12:06:18;23.45;;;9.30;;
66761;SDS011;53672;48.176;16.338;2024-03-08T12:11:20;20.45;;;7.97;;
66761;SDS011;53672;48.176;16.338;2024-03-08T12:16:24;24.27;;;9.43;;
66761;SDS011;53672;48.176;16.338;2024-03-08T12:21:26;27.33;;;9.88;;
66761;SDS011;53672;48.176;16.338;2024-03-08T12:26:29;24.10;;;9.13;;
66761;SDS011;53672;48.176;16.338;2024-03-08T12:31:33;23.23;;;9.45;;
66761;SDS011;53672;48.176;16.338;2024-03-08T12:36:36;24.02;;;8.65;;
66761;SDS011;53672;48.176;16.338;2024-03-08T12:41:39;23.27;;;9.67;;
66761;SDS011;53672;48.176;16.338;2024-03-08T12:46:43;26.13;;;10.38;;
66761;SDS011;53672;48.176;16.338;2024-03-08T12:51:45;22.43;;;8.83;;
66761;SDS011;53672;48.176;16.338;2024-03-08T12:56:47;28.27;;;10.00;;
66761;SDS011;53672;48.176;16.338;2024-03-08T13:01:51;19.58;;;7.88;;
66761;SDS011;53672;48.176;16.338;2024-03-08T13:06:53;22.17;;;8.17;;
66761;SDS011;53672;48.176;16.338;2024-03-08T13:11:55;18.63;;;8.13;;
66761;SDS011;53672;48.176;16.338;2024-03-08T13:17:00;22.03;;;8.53;;
66761;SDS011;53672;48.176;16.338;2024-03-08T13:22:02;16.65;;;6.97;;
66761;SDS011;53672;48.176;16.338;2024-03-08T13:27:05;19.27;;;7.75;;
66761;SDS011;53672;48.176;16.338;2024-03-08T13:32:20;20.37;;;7.47;;
66761;SDS011;53672;48.176;16.338;2024-03-08T13:37:22;18.30;;;7.78;;
66761;SDS011;53672;48.176;16.338;2024-03-08T13:42:24;18.07;;;6.80;;
66761;SDS011;53672;48.176;16.338;2024-03-08T13:47:28;18.27;;;7.15;;
66761;SDS011;53672;48.176;16.338;2024-03-08T13:52:30;17.55;;;7.13;;
66761;SDS011;53672;48.176;16.338;2024-03-08T13:57:32;16.50;;;7.00;;
66761;SDS011;53672;48.176;16.338;2024-03-08T14:02:35;18.98;;;7.80;;
66761;SDS011;53672;48.176;16.338;2024-03-08T14:07:36;21.40;;;8.00;;
66761;SDS011;53672;48.176;16.338;2024-03-08T14:12:38;24.80;;;8.75;;
66761;SDS011;53672;48.176;16.338;2024-03-08T14:17:41;21.98;;;7.97;;
66761;SDS011;53672;48.176;16.338;2024-03-08T14:22:43;20.67;;;8.07;;
66761;SDS011;53672;48.176;16.338;2024-03-08T14:27:46;21.55;;;8.45;;
66761;SDS011;53672;48.176;16.338;2024-03-08T14:32:49;22.70;;;8.83;;
66761;SDS011;53672;48.176;16.338;2024-03-08T14:37:50;22.75;;;8.88;;
66761;SDS011;53672;48.176;16.338;2024-03-08T14:42:52;21.00;;;8.18;;
66761;SDS011;53672;48.176;16.338;2024-03-08T14:47:56;21.50;;;8.67;;
66761;SDS011;53672;48.176;16.338;2024-03-08T14:52:57;23.70;;;9.82;;
66761;SDS011;53672;48.176;16.338;2024-03-08T14:58:00;21.70;;;8.47;;
66761;SDS011;53672;48.176;16.338;2024-03-08T15:03:04;22.10;;;8.85;;
66761;SDS011;53672;48.176;16.338;2024-03-08T15:08:06;23.23;;;9.25;;
66761;SDS011;53672;48.176;16.338;2024-03-08T15:13:10;21.77;;;9.37;;
66761;SDS011;53672;48.176;16.338;2024-03-08T15:18:23;22.70;;;8.82;;
66761;SDS011;53672;48.176;16.338;2024-03-08T15:23:34;25.10;;;9.20;;
66761;SDS011;53672;48.176;16.338;2024-03-08T15:28:36;21.92;;;8.25;;
66761;SDS011;53672;48.176;16.338;2024-03-08T15:33:40;24.95;;;9.75;;
66761;SDS011;53672;48.176;16.338;2024-03-08T15:38:45;20.67;;;8.87;;
66761;SDS011;53672;48.176;16.338;2024-03-08T15:43:46;22.35;;;9.07;;
66761;SDS011;53672;48.176;16.338;2024-03-08T15:48:49;24.00;;;9.57;;
66761;SDS011;53672;48.176;16.338;2024-03-08T15:53:52;21.58;;;8.65;;
66761;SDS011;53672;48.176;16.338;2024-03-08T15:58:55;23.20;;;9.07;;
66761;SDS011;53672;48.176;16.338;2024-03-08T16:03:58;21.03;;;8.63;;
66761;SDS011;53672;48.176;16.338;2024-03-08T16:09:00;22.15;;;8.85;;
66761;SDS011;53672;48.176;16.338;2024-03-08T16:14:01;19.80;;;7.90;;
66761;SDS011;53672;48.176;16.338;2024-03-08T16:19:04;22.02;;;8.68;;
66761;SDS011;53672;48.176;16.338;2024-03-08T16:24:07;20.95;;;8.40;;
66761;SDS011;53672;48.176;16.338;2024-03-08T16:29:09;21.03;;;8.83;;
66761;SDS011;53672;48.176;16.338;2024-03-08T16:34:15;22.30;;;8.75;;
66761;SDS011;53672;48.176;16.338;2024-03-08T16:39:16;20.40;;;8.60;;
66761;SDS011;53672;48.176;16.338;2024-03-08T16:44:18;20.85;;;8.43;;
66761;SDS011;53672;48.176;16.338;2024-03-08T16:49:22;21.13;;;9.13;;
66761;SDS011;53672;48.176;16.338;2024-03-08T16:54:24;17.00;;;7.63;;
66761;SDS011;53672;48.176;16.338;2024-03-08T16:59:25;21.15;;;9.18;;
66761;SDS011;53672;48.176;16.338;2024-03-08T17:04:28;22.47;;;8.80;;
66761;SDS011;53672;48.176;16.338;2024-03-08T17:09:30;19.60;;;8.70;;
66761;SDS011;53672;48.176;16.338;2024-03-08T17:14:32;22.70;;;8.98;;
66761;SDS011;53672;48.176;16.338;2024-03-08T17:19:39;20.03;;;7.57;;
66761;SDS011;53672;48.176;16.338;2024-03-08T17:24:40;20.98;;;7.90;;
66761;SDS011;53672;48.176;16.338;2024-03-08T17:29:43;20.10;;;8.67;;
66761;SDS011;53672;48.176;16.338;2024-03-08T17:34:46;20.27;;;8.25;;
66761;SDS011;53672;48.176;16.338;2024-03-08T17:39:48;19.63;;;8.55;;
66761;SDS011;53672;48.176;16.338;2024-03-08T17:44:49;18.80;;;7.87;;
66761;SDS011;53672;48.176;16.338;2024-03-08T17:49:52;19.00;;;7.43;;
66761;SDS011;53672;48.176;16.338;2024-03-08T17:54:54;19.67;;;7.63;;
66761;SDS011;53672;48.176;16.338;2024-03-08T17:59:56;18.92;;;7.60;;
66761;SDS011;53672;48.176;16.338;2024-03-08T18:04:59;22.02;;;8.05;;
66761;SDS011;53672;48.176;16.338;2024-03-08T18:10:04;20.17;;;7.93;;
66761;SDS011;53672;48.176;16.338;2024-03-08T18:15:07;22.30;;;8.68;;
66761;SDS011;53672;48.176;16.338;2024-03-08T18:20:11;20.97;;;8.40;;
66761;SDS011;53672;48.176;16.338;2024-03-08T18:25:14;19.90;;;8.38;;
66761;SDS011;53672;48.176;16.338;2024-03-08T18:30:18;22.58;;;8.35;;
66761;SDS011;53672;48.176;16.338;2024-03-08T18:35:21;19.53;;;7.27;;
66761;SDS011;53672;48.176;16.338;2024-03-08T18:40:23;21.20;;;8.77;;
66761;SDS011;53672;48.176;16.338;2024-03-08T18:45:25;20.97;;;8.37;;
66761;SDS011;53672;48.176;16.338;2024-03-08T18:50:29;18.27;;;7.30;;
66761;SDS011;53672;48.176;16.338;2024-03-08T18:55:31;20.33;;;8.32;;
66761;SDS011;53672;48.176;16.338;2024-03-08T19:00:34;20.97;;;8.13;;
66761;SDS011;53672;48.176;16.338;2024-03-08T19:05:39;23.65;;;9.15;;
66761;SDS011;53672;48.176;16.338;2024-03-08T19:10:41;23.23;;;9.30;;
66761;SDS011;53672;48.176;16.338;2024-03-08T19:15:43;21.77;;;8.55;;
66761;SDS011;53672;48.176;16.338;2024-03-08T19:20:47;22.27;;;8.68;;
66761;SDS011;53672;48.176;16.338;2024-03-08T19:25:48;18.00;;;8.30;;
66761;SDS011;53672;48.176;16.338;2024-03-08T19:30:50;20.95;;;9.70;;
66761;SDS011;53672;48.176;16.338;2024-03-08T19:35:55;26.77;;;10.33;;
66761;SDS011;53672;48.176;16.338;2024-03-08T19:40:57;23.20;;;9.20;;
66761;SDS011;53672;48.176;16.338;2024-03-08T19:45:58;24.42;;;9.68;;
66761;SDS011;53672;48.176;16.338;2024-03-08T19:51:01;26.00;;;10.30;;
66761;SDS011;53672;48.176;16.338;2024-03-08T19:56:05;25.98;;;10.15;;
66761;SDS011;53672;48.176;16.338;2024-03-08T20:01:07;24.90;;;10.20;;
66761;SDS011;53672;48.176;16.338;2024-03-08T20:06:10;30.05;;;11.05;;
66761;SDS011;53672;48.176;16.338;2024-03-08T20:11:12;23.90;;;9.32;;
66761;SDS011;53672;48.176;16.338;2024-03-08T20:16:15;30.10;;;11.23;;
66761;SDS011;53672;48.176;16.338;2024-03-08T20:21:19;26.20;;;10.70;;
66761;SDS011;53672;48.176;16.338;2024-03-08T20:26:21;30.13;;;11.83;;
66761;SDS011;53672;48.176;16.338;2024-03-08T20:31:23;31.40;;;11.48;;
66761;SDS011;53672;48.176;16.338;2024-03-08T20:36:26;29.90;;;11.30;;
66761;SDS011;53672;48.176;16.338;2024-03-08T20:41:27;29.07;;;11.43;;
66761;SDS011;53672;48.176;16.338;2024-03-08T20:46:31;28.10;;;10.48;;
66761;SDS011;53672;48.176;16.338;2024-03-08T20:51:35;29.70;;;11.10;;
66761;SDS011;53672;48.176;16.338;2024-03-08T20:56:37;26.63;;;11.05;;
66761;SDS011;53672;48.176;16.338;2024-03-08T21:01:38;29.95;;;12.02;;
66761;SDS011;53672;48.176;16.338;2024-03-08T21:06:44;33.67;;;12.27;;
66761;SDS011;53672;48.176;16.338;2024-03-08T21:11:45;30.52;;;11.82;;
66761;SDS011;53672;48.176;16.338;2024-03-08T21:16:47;29.80;;;11.27;;
66761;SDS011;53672;48.176;16.338;2024-03-08T21:21:50;31.38;;;12.40;;
66761;SDS011;53672;48.176;16.338;2024-03-08T21:26:52;30.55;;;11.57;;
66761;SDS011;53672;48.176;16.338;2024-03-08T21:31:54;28.50;;;11.53;;
66761;SDS011;53672;48.176;16.338;2024-03-08T21:36:57;29.40;;;11.80;;
66761;SDS011;53672;48.176;16.338;2024-03-08T21:41:59;33.73;;;11.53;;
66761;SDS011;53672;48.176;16.338;2024-03-08T21:47:00;29.00;;;11.18;;
66761;SDS011;53672;48.176;16.338;2024-03-08T21:52:05;31.25;;;11.63;;
66761;SDS011;53672;48.176;16.338;2024-03-08T21:57:07;34.70;;;12.57;;
66761;SDS011;53672;48.176;16.338;2024-03-08T22:02:10;32.75;;;12.98;;
66761;SDS011;53672;48.176;16.338;2024-03-08T22:07:13;32.27;;;13.40;;
66761;SDS011;53672;48.176;16.338;2024-03-08T22:12:14;30.20;;;11.02;;
66761;SDS011;53672;48.176;16.338;2024-03-08T22:17:16;30.63;;;12.15;;
66761;SDS011;53672;48.176;16.338;2024-03-08T22:22:19;33.73;;;12.37;;
66761;SDS011;53672;48.176;16.338;2024-03-08T22:27:22;28.25;;;11.80;;
66761;SDS011;53672;48.176;16.338;2024-03-08T22:32:24;29.23;;;12.30;;
66761;SDS011;53672;48.176;16.338;2024-03-08T22:37:28;30.35;;;12.20;;
66761;SDS011;53672;48.176;16.338;2024-03-08T22:42:30;33.40;;;11.68;;
66761;SDS011;53672;48.176;16.338;2024-03-08T22:47:32;26.77;;;10.70;;
66761;SDS011;53672;48.176;16.338;2024-03-08T22:52:35;28.20;;;11.27;;
66761;SDS011;53672;48.176;16.338;2024-03-08T22:57:37;30.80;;;13.40;;
66761;SDS011;53672;48.176;16.338;2024-03-08T23:02:39;30.77;;;12.18;;
66761;SDS011;53672;48.176;16.338;2024-03-08T23:07:42;29.63;;;11.98;;
66761;SDS011;53672;48.176;16.338;2024-03-08T23:12:44;26.63;;;10.93;;
66761;SDS011;53672;48.176;16.338;2024-03-08T23:17:46;29.33;;;11.70;;
66761;SDS011;53672;48.176;16.338;2024-03-08T23:22:51;29.40;;;12.40;;
66761;SDS011;53672;48.176;16.338;2024-03-08T23:27:54;30.55;;;11.52;;
66761;SDS011;53672;48.176;16.338;2024-03-08T23:32:56;28.10;;;12.10;;
66761;SDS011;53672;48.176;16.338;2024-03-08T23:38:00;25.47;;;10.97;;
66761;SDS011;53672;48.176;16.338;2024-03-08T23:43:02;27.00;;;12.18;;
66761;SDS011;53672;48.176;16.338;2024-03-08T23:48:04;27.73;;;11.03;;
66761;SDS011;53672;48.176;16.338;2024-03-08T23:53:08;27.65;;;12.20;;
66761;SDS011;53672;48.176;16.338;2024-03-08T23:58:11;26.05;;;11.88;;
